Time;durP1;ratioP1;P1;durP2;ratioP2;P2;SDS_P1;SDS_P2;PMS_P1;PMS_P2;Temp;Humidity;BMP_temperature;BMP_pressure;BME280_temperature;BME280_humidity;BME280_pressure;Samples;Min_cycle;Max_cycle;Signal;HPM_P1;HPM_P2
2023/11/23 00:01:54;;;;;;;29.70;14.00;;;;;;;-2.10;74.57;100745.27;129776;1264;98122;-80
2023/11/23 00:04:59;;;;;;;29.80;13.90;;;;;;;-2.01;74.40;100735.15;129902;1268;97973;-80
2023/11/23 00:08:05;;;;;;;29.70;15.00;;;;;;;-1.91;74.27;100731.98;129751;1268;99059;-78
2023/11/23 00:11:11;;;;;;;30.60;15.20;;;;;;;-1.86;74.25;100726.38;129787;1265;98675;-79
2023/11/23 00:14:16;;;;;;;28.70;15.20;;;;;;;-1.80;74.30;100717.41;129838;1268;99182;-79
2023/11/23 00:17:22;;;;;;;28.30;14.90;;;;;;;-1.77;74.23;100722.35;129835;1268;97963;-79
2023/11/23 00:20:28;;;;;;;26.50;14.30;;;;;;;-1.75;74.13;100714.26;129875;1265;97992;-80
2023/11/23 00:23:33;;;;;;;28.90;15.10;;;;;;;-1.75;74.36;100701.52;129818;1264;97993;-79
2023/11/23 00:26:39;;;;;;;27.60;13.90;;;;;;;-1.79;74.21;100700.60;129801;1265;98422;-80
2023/11/23 00:29:44;;;;;;;27.90;14.10;;;;;;;-1.80;74.19;100698.54;129734;1268;98053;-78
2023/11/23 00:32:50;;;;;;;24.90;13.50;;;;;;;-1.81;74.18;100700.36;129751;1265;98644;-79
2023/11/23 00:35:56;;;;;;;29.70;14.00;;;;;;;-1.84;74.41;100691.39;129689;1264;98047;-79
2023/11/23 00:39:03;;;;;;;26.20;14.50;;;;;;;-1.86;74.22;100680.36;129748;1268;98058;-80
2023/11/23 00:42:10;;;;;;;25.80;13.30;;;;;;;-1.91;74.26;100678.25;129821;1268;98084;-79
2023/11/23 00:45:16;;;;;;;24.00;12.70;;;;;;;-1.94;74.48;100665.50;129765;1268;98837;-79
2023/11/23 00:48:21;;;;;;;22.20;12.30;;;;;;;-1.96;74.47;100660.53;129756;1268;98797;-79
2023/11/23 00:51:27;;;;;;;22.10;11.90;;;;;;;-2.00;74.52;100639.58;129882;1268;97967;-79
2023/11/23 00:54:37;;;;;;;22.00;12.30;;;;;;;-2.03;74.40;100621.39;129777;1268;97965;-79
2023/11/23 00:57:43;;;;;;;21.90;12.10;;;;;;;-2.05;74.61;100628.80;129763;1268;98033;-79
2023/11/23 01:00:49;;;;;;;26.60;12.80;;;;;;;-2.06;74.55;100622.94;129742;1268;99189;-79
2023/11/23 01:03:55;;;;;;;24.40;12.60;;;;;;;-2.04;74.88;100622.48;129801;1268;99308;-79
2023/11/23 01:07:01;;;;;;;24.20;12.90;;;;;;;-1.99;74.93;100618.26;129741;1265;99247;-80
2023/11/23 01:10:08;;;;;;;21.00;11.90;;;;;;;-1.91;74.75;100609.73;129919;1268;97961;-79
2023/11/23 01:13:14;;;;;;;24.70;12.60;;;;;;;-1.82;74.47;100602.05;129806;1269;99135;-80
2023/11/23 01:16:20;;;;;;;24.80;13.60;;;;;;;-1.75;74.40;100599.48;129746;1268;98002;-81
2023/11/23 01:19:25;;;;;;;25.20;13.60;;;;;;;-1.68;74.63;100603.70;129907;1268;98708;-78
2023/11/23 01:22:31;;;;;;;28.30;14.10;;;;;;;-1.64;74.40;100605.64;129729;1269;97958;-80
2023/11/23 01:25:38;;;;;;;24.80;14.30;;;;;;;-1.61;74.45;100599.73;129797;1268;97990;-80
2023/11/23 01:28:44;;;;;;;27.70;14.60;;;;;;;-1.58;74.71;100587.75;129715;1268;97990;-80
2023/11/23 01:31:49;;;;;;;24.30;14.30;;;;;;;-1.59;74.53;100574.34;129710;1269;98106;-80
2023/11/23 01:34:55;;;;;;;25.40;14.10;;;;;;;-1.61;74.58;100570.95;129905;1277;98009;-80
2023/11/23 01:38:01;;;;;;;25.70;14.40;;;;;;;-1.61;74.61;100564.70;129956;1266;99071;-79
2023/11/23 01:41:07;;;;;;;25.50;14.90;;;;;;;-1.63;74.75;100557.80;129979;1268;97993;-80
2023/11/23 01:44:12;;;;;;;25.10;14.30;;;;;;;-1.64;74.98;100547.20;129762;1272;97968;-81
2023/11/23 01:47:18;;;;;;;24.80;14.30;;;;;;;-1.65;74.65;100525.80;129899;1269;99042;-80
2023/11/23 01:50:26;;;;;;;29.80;15.80;;;;;;;-1.66;74.92;100509.23;129739;1264;97986;-79
2023/11/23 01:53:31;;;;;;;27.00;15.40;;;;;;;-1.66;75.12;100500.22;129791;1269;98761;-81
2023/11/23 01:56:37;;;;;;;28.40;14.50;;;;;;;-1.65;75.16;100502.41;129773;1268;98085;-79
2023/11/23 01:59:44;;;;;;;26.60;14.60;;;;;;;-1.64;75.02;100492.77;129649;1271;98670;-80
2023/11/23 02:02:50;;;;;;;24.90;14.00;;;;;;;-1.61;75.03;100481.99;129794;1269;98147;-79
2023/11/23 02:05:56;;;;;;;25.70;14.90;;;;;;;-1.55;75.12;100476.35;129746;1269;99150;-80
2023/11/23 02:09:03;;;;;;;24.80;13.20;;;;;;;-1.47;75.12;100464.28;129773;1268;99055;-80
2023/11/23 02:12:09;;;;;;;25.00;14.00;;;;;;;-1.35;75.53;100467.20;129771;1268;98044;-80
2023/11/23 02:15:15;;;;;;;24.10;14.60;;;;;;;-1.26;75.25;100443.21;129808;1264;98021;-80
2023/11/23 02:18:21;;;;;;;25.50;14.50;;;;;;;-1.16;75.06;100438.92;129810;1268;99164;-80
2023/11/23 02:21:27;;;;;;;26.70;14.20;;;;;;;-1.09;75.11;100447.30;130031;1268;97989;-80
2023/11/23 02:24:32;;;;;;;25.30;13.80;;;;;;;-1.06;75.00;100445.58;129816;1268;99068;-78
2023/11/23 02:27:38;;;;;;;23.10;13.70;;;;;;;-1.06;75.14;100446.27;129798;1268;99145;-80
2023/11/23 02:30:44;;;;;;;24.80;14.00;;;;;;;-1.06;75.33;100433.16;130080;1269;99157;-79
2023/11/23 02:33:51;;;;;;;27.60;14.70;;;;;;;-1.05;75.47;100425.11;129820;1270;98046;-80
2023/11/23 02:36:57;;;;;;;28.10;15.40;;;;;;;-1.05;75.39;100412.17;129722;1268;97964;-80
2023/11/23 02:40:04;;;;;;;26.30;14.90;;;;;;;-1.05;75.46;100409.55;129742;1268;98011;-80
2023/11/23 02:43:10;;;;;;;26.00;15.00;;;;;;;-1.05;75.65;100408.54;129878;1268;99048;-80
2023/11/23 02:46:16;;;;;;;25.60;14.80;;;;;;;-1.08;75.59;100397.13;129914;1269;98810;-80
2023/11/23 02:49:21;;;;;;;27.70;15.20;;;;;;;-1.09;75.70;100385.69;129661;1275;98009;-80
2023/11/23 02:52:27;;;;;;;31.90;15.70;;;;;;;-1.10;75.80;100376.33;129771;1268;98310;-80
2023/11/23 02:55:33;;;;;;;28.50;14.70;;;;;;;-1.11;76.09;100366.40;129780;1270;97959;-79
2023/11/23 02:58:40;;;;;;;28.90;14.60;;;;;;;-1.09;75.96;100360.86;129887;1269;99050;-80
2023/11/23 03:01:45;;;;;;;25.50;13.60;;;;;;;-1.02;76.04;100356.34;129896;1264;97992;-79
2023/11/23 03:04:53;;;;;;;24.70;13.80;;;;;;;-0.91;76.15;100352.14;129794;1270;97983;-80
2023/11/23 03:08:00;;;;;;;25.90;14.00;;;;;;;-0.80;76.09;100337.25;129822;1287;99078;-79
2023/11/23 03:11:06;;;;;;;26.40;13.80;;;;;;;-0.73;75.98;100330.77;129765;1268;98085;-81
2023/11/23 03:14:11;;;;;;;26.30;15.00;;;;;;;-0.72;76.18;100320.92;129742;1265;98016;-80
2023/11/23 03:17:18;;;;;;;23.10;13.60;;;;;;;-0.70;76.11;100318.05;129879;1267;98923;-80
2023/11/23 03:20:24;;;;;;;27.60;15.10;;;;;;;-0.69;76.26;100309.08;129908;1268;97995;-80
2023/11/23 03:23:32;;;;;;;27.40;15.20;;;;;;;-0.69;76.32;100300.17;129795;1269;99189;-81
2023/11/23 03:26:38;;;;;;;118.30;53.60;;;;;;;-0.69;76.45;100293.52;129697;1270;98125;-79
2023/11/23 03:29:43;;;;;;;205.30;71.80;;;;;;;-0.69;76.29;100281.33;130057;1270;98166;-80
2023/11/23 03:32:50;;;;;;;65.40;25.80;;;;;;;-0.69;76.37;100267.34;129994;1269;98984;-80
2023/11/23 03:35:56;;;;;;;82.20;39.30;;;;;;;-0.71;76.51;100253.95;130143;1268;98722;-77
2023/11/23 03:39:01;;;;;;;86.80;31.20;;;;;;;-0.72;76.60;100239.36;129777;1269;99308;-77
2023/11/23 03:42:09;;;;;;;38.00;20.30;;;;;;;-0.72;76.72;100226.96;129765;1279;97987;-79
2023/11/23 03:45:14;;;;;;;33.40;18.00;;;;;;;-0.70;76.95;100220.04;129852;1279;97981;-80
2023/11/23 03:48:21;;;;;;;82.10;43.10;;;;;;;-0.63;77.00;100209.33;129923;1268;98068;-79
2023/11/23 03:51:27;;;;;;;336.90;119.60;;;;;;;-0.54;76.98;100193.50;130073;1271;98079;-78
2023/11/23 03:54:32;;;;;;;97.70;35.30;;;;;;;-0.48;76.99;100178.98;129926;1268;97960;-77
2023/11/23 03:57:38;;;;;;;433.30;149.10;;;;;;;-0.40;76.96;100173.84;129931;1278;97953;-78
2023/11/23 04:00:44;;;;;;;485.90;206.00;;;;;;;-0.35;76.96;100164.13;129869;1264;98634;-79
2023/11/23 04:03:50;;;;;;;126.20;48.40;;;;;;;-0.31;77.06;100153.77;129815;1265;97966;-79
2023/11/23 04:06:56;;;;;;;55.50;23.70;;;;;;;-0.30;77.04;100147.95;129836;1269;97955;-78
2023/11/23 04:10:02;;;;;;;40.30;19.70;;;;;;;-0.29;77.15;100143.52;129750;1264;98861;-79
2023/11/23 04:13:07;;;;;;;36.70;18.00;;;;;;;-0.29;77.14;100130.44;130010;1263;97964;-79
2023/11/23 04:16:13;;;;;;;29.70;17.20;;;;;;;-0.31;77.29;100127.04;129842;1268;99154;-78
2023/11/23 04:19:18;;;;;;;27.60;15.90;;;;;;;-0.34;77.38;100116.06;129804;1275;98460;-78
2023/11/23 04:22:24;;;;;;;26.80;15.00;;;;;;;-0.36;77.42;100106.56;129789;1279;98774;-78
2023/11/23 04:25:30;;;;;;;31.30;16.00;;;;;;;-0.38;77.59;100095.09;129820;1277;98762;-79
2023/11/23 04:28:38;;;;;;;100.60;43.00;;;;;;;-0.38;77.70;100082.02;129826;1264;99144;-78
2023/11/23 04:31:44;;;;;;;29.60;15.80;;;;;;;-0.37;77.86;100066.77;129841;1280;99228;-78
2023/11/23 04:34:49;;;;;;;24.60;13.50;;;;;;;-0.30;77.84;100052.89;129856;1270;97993;-79
2023/11/23 04:37:55;;;;;;;27.50;14.90;;;;;;;-0.22;77.71;100034.05;129855;1277;99156;-78
2023/11/23 04:41:02;;;;;;;27.30;16.10;;;;;;;-0.12;77.65;100027.52;129804;1268;97970;-78
2023/11/23 04:44:08;;;;;;;28.90;16.20;;;;;;;-0.06;77.66;100009.70;129850;1277;97987;-79
2023/11/23 04:47:14;;;;;;;36.80;21.90;;;;;;;-0.02;77.78;99996.86;129859;1271;99244;-79
2023/11/23 04:50:20;;;;;;;26.70;15.80;;;;;;;-0.01;77.55;99992.23;129821;1264;98566;-78
2023/11/23 04:53:25;;;;;;;26.00;15.30;;;;;;;0.01;77.78;99988.67;129856;1279;99049;-78
2023/11/23 04:56:31;;;;;;;27.00;15.20;;;;;;;-0.00;77.96;99988.89;129891;1269;99036;-79
2023/11/23 04:59:38;;;;;;;29.30;14.90;;;;;;;-0.02;77.89;99974.12;129976;1270;98467;-78
2023/11/23 05:02:44;;;;;;;28.50;15.20;;;;;;;-0.03;78.08;99971.16;129870;1268;97971;-78
2023/11/23 05:05:50;;;;;;;30.60;15.90;;;;;;;-0.04;78.10;99961.27;129866;1264;98116;-79
2023/11/23 05:08:56;;;;;;;30.00;15.80;;;;;;;-0.02;78.38;99956.30;129921;1270;99202;-78
2023/11/23 05:12:01;;;;;;;29.10;14.50;;;;;;;0.01;78.50;99941.59;129853;1278;99154;-79
2023/11/23 05:15:09;;;;;;;140.10;49.20;;;;;;;0.08;78.64;99935.04;129874;1265;98039;-79
2023/11/23 05:18:15;;;;;;;103.10;40.30;;;;;;;0.20;78.64;99928.91;129800;1271;97975;-79
2023/11/23 05:21:21;;;;;;;33.20;16.70;;;;;;;0.29;78.64;99919.38;129897;1276;99144;-79
2023/11/23 05:24:27;;;;;;;49.20;26.10;;;;;;;0.35;78.69;99902.58;129972;1270;99135;-79
2023/11/23 05:27:33;;;;;;;68.40;32.20;;;;;;;0.36;78.67;99892.35;129842;1270;97977;-78
2023/11/23 05:30:39;;;;;;;38.40;20.00;;;;;;;0.38;78.84;99885.61;129826;1269;98102;-78
2023/11/23 05:33:45;;;;;;;30.90;16.90;;;;;;;0.38;78.83;99875.23;129852;1270;98827;-79
2023/11/23 05:36:50;;;;;;;27.70;16.00;;;;;;;0.38;78.96;99869.36;129793;1268;99146;-72
2023/11/23 05:39:56;;;;;;;28.70;16.30;;;;;;;0.34;79.04;99859.25;129834;1264;98117;-75
2023/11/23 05:43:02;;;;;;;68.90;30.90;;;;;;;0.30;79.26;99847.08;129793;1267;99016;-72
2023/11/23 05:46:07;;;;;;;79.20;35.50;;;;;;;0.28;79.44;99839.90;129819;1264;97996;-74
2023/11/23 05:49:13;;;;;;;47.00;22.60;;;;;;;0.30;79.47;99831.70;129870;1279;98633;-74
2023/11/23 05:52:18;;;;;;;132.50;59.00;;;;;;;0.35;79.58;99822.60;129903;1264;98390;-75
2023/11/23 05:55:24;;;;;;;64.10;30.10;;;;;;;0.41;79.57;99817.17;129900;1270;98889;-75
2023/11/23 05:58:29;;;;;;;67.60;31.10;;;;;;;0.46;79.72;99808.11;129890;1269;97990;-75
2023/11/23 06:01:35;;;;;;;36.00;19.00;;;;;;;0.50;79.70;99790.87;129896;1264;98742;-75
2023/11/23 06:04:44;;;;;;;48.50;25.20;;;;;;;0.51;79.77;99784.68;129859;1270;97989;-77
2023/11/23 06:07:51;;;;;;;75.10;38.60;;;;;;;0.51;79.94;99772.07;129867;1268;98025;-74
2023/11/23 06:10:57;;;;;;;42.80;22.90;;;;;;;0.49;80.13;99772.37;129875;1264;97952;-77
2023/11/23 06:14:02;;;;;;;39.50;20.70;;;;;;;0.48;80.14;99761.09;129905;1277;99056;-75
2023/11/23 06:17:10;;;;;;;66.70;34.40;;;;;;;0.50;80.50;99760.96;129878;1268;98756;-74
2023/11/23 06:20:16;;;;;;;88.30;40.80;;;;;;;0.51;80.68;99754.54;129853;1272;97973;-75
2023/11/23 06:23:22;;;;;;;28.70;16.30;;;;;;;0.57;80.80;99748.20;129882;1270;98025;-75
2023/11/23 06:26:28;;;;;;;26.90;13.10;;;;;;;0.66;80.96;99752.71;129975;1285;99039;-75
2023/11/23 06:29:34;;;;;;;26.50;14.80;;;;;;;0.73;80.47;99737.34;129907;1269;98078;-75
2023/11/23 06:32:39;;;;;;;24.30;13.40;;;;;;;0.80;80.63;99734.28;129916;1277;99164;-75
2023/11/23 06:35:45;;;;;;;30.20;20.00;;;;;;;0.83;80.60;99737.55;130008;1276;98080;-74
2023/11/23 06:38:50;;;;;;;28.30;17.60;;;;;;;0.87;80.41;99729.10;129997;1267;98652;-75
2023/11/23 06:41:56;;;;;;;25.60;15.00;;;;;;;0.87;80.60;99719.81;130097;1268;99203;-75
2023/11/23 06:45:02;;;;;;;22.00;13.00;;;;;;;0.85;80.63;99716.23;130040;1263;98565;-75
2023/11/23 06:48:08;;;;;;;24.50;12.90;;;;;;;0.84;81.08;99718.61;130012;1264;98009;-74
2023/11/23 06:51:14;;;;;;;20.20;11.10;;;;;;;0.83;81.64;99720.81;129997;1267;98760;-75
2023/11/23 06:54:20;;;;;;;20.30;10.10;;;;;;;0.84;82.06;99712.31;130022;1268;98104;-75
2023/11/23 06:57:27;;;;;;;20.20;11.00;;;;;;;0.89;82.37;99707.05;130009;1267;97980;-74
2023/11/23 07:00:33;;;;;;;19.80;10.70;;;;;;;0.95;82.66;99697.38;130008;1267;99192;-75
2023/11/23 07:03:41;;;;;;;19.30;11.20;;;;;;;0.98;83.05;99690.30;130008;1264;98062;-75
2023/11/23 07:06:46;;;;;;;65.10;30.70;;;;;;;0.99;83.21;99686.40;129991;1267;98045;-75
2023/11/23 07:09:52;;;;;;;220.00;81.70;;;;;;;0.99;83.26;99675.02;129968;1263;97969;-75
2023/11/23 07:12:58;;;;;;;374.10;125.70;;;;;;;0.98;83.40;99672.06;129969;1263;98094;-75
2023/11/23 07:16:04;;;;;;;253.60;83.10;;;;;;;1.01;83.55;99667.54;130034;1276;99166;-75
2023/11/23 07:19:11;;;;;;;370.20;125.60;;;;;;;1.07;83.67;99667.42;129966;1268;97982;-75
2023/11/23 07:22:16;;;;;;;524.80;203.10;;;;;;;1.14;83.84;99660.80;129971;1267;98073;-76
2023/11/23 07:25:22;;;;;;;383.10;125.40;;;;;;;1.19;83.86;99653.34;129907;1269;98068;-75
2023/11/23 07:28:28;;;;;;;363.60;121.40;;;;;;;1.21;84.06;99644.27;129932;1268;98777;-76
2023/11/23 07:31:33;;;;;;;136.80;62.30;;;;;;;1.18;84.16;99639.69;129908;1268;98039;-75
2023/11/23 07:34:40;;;;;;;23.90;13.50;;;;;;;1.18;84.18;99638.80;129924;1268;98729;-75
2023/11/23 07:37:46;;;;;;;25.10;13.60;;;;;;;1.22;84.39;99640.00;130052;1264;98521;-74
2023/11/23 07:40:52;;;;;;;22.20;12.30;;;;;;;1.27;84.44;99633.27;129888;1263;98608;-74
2023/11/23 07:43:58;;;;;;;22.50;12.50;;;;;;;1.33;84.52;99623.21;129996;1280;98066;-75
2023/11/23 07:47:08;;;;;;;22.10;12.30;;;;;;;1.37;85.06;99607.15;129900;1268;97949;-75
2023/11/23 07:50:15;;;;;;;22.60;12.80;;;;;;;1.36;84.98;99607.06;129894;1264;97959;-75
2023/11/23 07:53:21;;;;;;;33.20;21.30;;;;;;;1.33;85.26;99596.60;129934;1263;97991;-76
2023/11/23 07:56:27;;;;;;;26.20;16.10;;;;;;;1.33;85.41;99590.29;129914;1276;98012;-75
2023/11/23 07:59:34;;;;;;;23.80;11.80;;;;;;;1.35;85.61;99581.38;129991;1268;97964;-74
2023/11/23 08:02:40;;;;;;;23.10;12.50;;;;;;;1.40;85.46;99574.39;129879;1268;99193;-75
2023/11/23 08:05:47;;;;;;;22.10;12.80;;;;;;;1.43;85.75;99578.53;129903;1268;99157;-75
2023/11/23 08:08:53;;;;;;;18.00;10.70;;;;;;;1.45;85.64;99569.94;129935;1270;97983;-75
2023/11/23 08:11:59;;;;;;;20.40;11.20;;;;;;;1.46;85.85;99558.70;129955;1264;101352;-75
2023/11/23 08:15:06;;;;;;;18.80;10.70;;;;;;;1.44;85.82;99565.63;129868;1268;98074;-74
2023/11/23 08:18:12;;;;;;;17.10;9.80;;;;;;;1.42;86.02;99560.02;129964;1268;99148;-74
2023/11/23 08:21:18;;;;;;;17.50;10.00;;;;;;;1.43;85.98;99565.89;129900;1268;97956;-74
2023/11/23 08:24:23;;;;;;;16.60;9.10;;;;;;;1.50;86.35;99558.54;129966;1268;97982;-74
2023/11/23 08:27:29;;;;;;;16.80;9.10;;;;;;;1.58;86.04;99558.67;129978;1264;98025;-74
2023/11/23 08:30:34;;;;;;;16.30;9.90;;;;;;;1.65;86.35;99556.65;129899;1268;97978;-74
2023/11/23 08:33:40;;;;;;;21.40;12.20;;;;;;;1.69;86.51;99547.89;129777;1264;99062;-76
2023/11/23 08:36:46;;;;;;;18.60;10.80;;;;;;;1.74;86.23;99558.92;129880;1264;98063;-74
2023/11/23 08:39:51;;;;;;;38.10;20.40;;;;;;;1.76;86.92;99560.88;129881;1268;98799;-74
2023/11/23 08:43:12;;;;;;;17.80;9.90;;;;;;;1.77;87.51;99552.04;129829;1265;99160;-74
2023/11/23 08:46:18;;;;;;;18.10;10.10;;;;;;;1.81;87.09;99553.17;129825;1264;98078;-74
2023/11/23 08:49:25;;;;;;;20.20;10.80;;;;;;;1.87;87.45;99543.38;129851;1268;98056;-74
2023/11/23 08:52:31;;;;;;;29.90;18.40;;;;;;;1.92;87.10;99536.48;129720;1269;97958;-73
2023/11/23 08:55:36;;;;;;;33.20;20.70;;;;;;;1.99;87.12;99524.95;129925;1264;98050;-74
2023/11/23 08:58:42;;;;;;;53.20;33.10;;;;;;;2.02;87.51;99524.55;129852;1269;98762;-74
2023/11/23 09:01:49;;;;;;;63.70;35.90;;;;;;;2.05;87.50;99519.39;129954;1263;99202;-74
2023/11/23 09:04:55;;;;;;;34.10;19.40;;;;;;;2.09;87.60;99506.79;129946;1268;97987;-74
2023/11/23 09:08:06;;;;;;;26.20;16.30;;;;;;;2.18;87.79;99493.67;129945;1263;99145;-74
2023/11/23 09:11:12;;;;;;;36.00;22.40;;;;;;;2.26;87.89;99482.18;130009;1268;98767;-75
2023/11/23 09:14:17;;;;;;;40.60;24.50;;;;;;;2.32;87.62;99471.17;130003;1262;98651;-76
2023/11/23 09:17:23;;;;;;;68.00;35.90;;;;;;;2.36;88.21;99457.67;129981;1264;97966;-76
2023/11/23 09:20:29;;;;;;;75.40;44.60;;;;;;;2.38;88.40;99452.13;129922;1264;97967;-75
2023/11/23 09:23:34;;;;;;;65.80;39.90;;;;;;;2.43;88.34;99442.26;129920;1264;98767;-75
2023/11/23 09:26:40;;;;;;;76.20;40.90;;;;;;;2.51;88.72;99432.33;129944;1268;97983;-75
2023/11/23 09:29:46;;;;;;;72.00;44.00;;;;;;;2.59;88.58;99422.03;129923;1266;97989;-75
2023/11/23 09:32:52;;;;;;;97.20;57.10;;;;;;;2.67;88.55;99411.50;129892;1270;98861;-76
2023/11/23 09:36:00;;;;;;;47.60;29.80;;;;;;;2.73;88.41;99413.48;129922;1268;99170;-74
2023/11/23 09:39:09;;;;;;;24.00;14.10;;;;;;;2.79;88.19;99397.95;129899;1264;98587;-75
2023/11/23 09:42:18;;;;;;;23.20;12.90;;;;;;;2.79;88.77;99390.58;129930;1264;98399;-76
2023/11/23 09:45:25;;;;;;;21.90;12.00;;;;;;;2.77;89.24;99383.86;129980;1268;97987;-75
2023/11/23 09:48:34;;;;;;;24.90;12.10;;;;;;;2.79;89.29;99380.94;129962;1264;99148;-75
2023/11/23 09:51:41;;;;;;;26.40;13.80;;;;;;;2.84;89.46;99378.16;129925;1264;97967;-75
2023/11/23 09:54:48;;;;;;;19.00;11.70;;;;;;;2.90;89.35;99370.86;129888;1269;97955;-73
2023/11/23 09:57:53;;;;;;;27.30;14.20;;;;;;;2.96;89.19;99374.41;129955;1268;98437;-75
2023/11/23 10:01:03;;;;;;;22.90;13.80;;;;;;;2.98;89.43;99369.12;129912;1279;98733;-74
2023/11/23 10:04:10;;;;;;;21.00;12.00;;;;;;;2.98;89.91;99357.25;129923;1268;98111;-74
2023/11/23 10:07:17;;;;;;;19.60;10.60;;;;;;;3.00;89.67;99350.36;129924;1269;98447;-74
2023/11/23 10:10:23;;;;;;;17.70;10.60;;;;;;;3.03;89.76;99343.08;129937;1265;98221;-74
2023/11/23 10:13:29;;;;;;;18.80;12.00;;;;;;;3.09;89.56;99340.52;129932;1264;98448;-74
2023/11/23 10:16:36;;;;;;;19.60;11.20;;;;;;;3.13;89.52;99330.63;129945;1268;98353;-74
2023/11/23 10:19:41;;;;;;;18.10;11.40;;;;;;;3.17;89.61;99323.88;129997;1268;98109;-74
2023/11/23 10:22:48;;;;;;;17.00;10.70;;;;;;;3.18;89.99;99308.80;129905;1268;99150;-74
2023/11/23 10:25:54;;;;;;;13.70;8.30;;;;;;;3.20;90.02;99301.26;129929;1268;99182;-74
2023/11/23 10:29:00;;;;;;;14.20;8.30;;;;;;;3.23;90.22;99297.65;129935;1268;97961;-74
2023/11/23 10:32:07;;;;;;;15.70;9.40;;;;;;;3.29;90.52;99300.63;129809;1268;98057;-75
2023/11/23 10:35:14;;;;;;;201.50;75.80;;;;;;;3.36;90.55;99298.98;129954;1268;98050;-75
2023/11/23 10:38:23;;;;;;;169.50;56.20;;;;;;;3.41;90.36;99308.42;129908;1267;98066;-75
2023/11/23 10:41:29;;;;;;;165.30;52.10;;;;;;;3.45;90.52;99297.89;129907;1268;98626;-75
2023/11/23 10:44:35;;;;;;;311.00;136.40;;;;;;;3.47;90.60;99301.04;129905;1265;99196;-75
2023/11/23 10:47:44;;;;;;;93.40;44.70;;;;;;;3.48;91.12;99286.92;129875;1268;99163;-75
2023/11/23 10:50:50;;;;;;;44.20;25.10;;;;;;;3.51;91.22;99287.55;130042;1277;98580;-75
2023/11/23 10:53:56;;;;;;;49.20;29.30;;;;;;;3.55;91.53;99294.58;129906;1268;99075;-74
2023/11/23 10:57:04;;;;;;;27.30;17.10;;;;;;;3.59;91.14;99291.43;129905;1267;98636;-75
2023/11/23 11:00:16;;;;;;;19.60;12.00;;;;;;;3.62;91.21;99292.25;129926;1264;98044;-76
2023/11/23 11:03:24;;;;;;;20.30;11.50;;;;;;;3.61;91.28;99295.14;129961;1268;98025;-75
2023/11/23 11:06:40;;;;;;;17.70;12.10;;;;;;;3.63;91.51;99281.63;129906;1264;99160;-77
2023/11/23 11:09:46;;;;;;;19.70;13.40;;;;;;;3.69;91.31;99267.03;129928;1264;98071;-77
2023/11/23 11:12:51;;;;;;;18.60;11.50;;;;;;;3.77;91.69;99254.38;129939;1268;97962;-77
2023/11/23 11:16:03;;;;;;;15.30;10.20;;;;;;;3.83;91.54;99249.81;129896;1267;98072;-77
2023/11/23 11:19:13;;;;;;;20.10;13.10;;;;;;;3.87;91.85;99236.23;129946;1268;99059;-75
2023/11/23 11:22:19;;;;;;;17.70;11.10;;;;;;;3.89;91.62;99236.91;129915;1268;97980;-75
2023/11/23 11:25:36;;;;;;;14.50;9.50;;;;;;;3.93;91.81;99225.33;129886;1267;97980;-77
2023/11/23 11:28:42;;;;;;;15.00;10.20;;;;;;;4.01;92.06;99219.18;129945;1271;99167;-76
2023/11/23 11:31:49;;;;;;;17.80;12.40;;;;;;;4.08;92.29;99217.34;129899;1268;98415;-76
2023/11/23 11:35:03;;;;;;;16.30;10.90;;;;;;;4.15;91.95;99210.49;129863;1268;98736;-75
2023/11/23 11:38:16;;;;;;;46.70;26.40;;;;;;;4.18;92.20;99198.44;129958;1266;99058;-75
2023/11/23 11:41:22;;;;;;;40.50;21.70;;;;;;;4.18;92.21;99193.73;129932;1265;98638;-75
2023/11/23 11:44:29;;;;;;;25.70;15.70;;;;;;;4.20;92.37;99172.81;129924;1268;98413;-76
2023/11/23 11:47:38;;;;;;;18.20;11.60;;;;;;;4.23;92.40;99154.33;129882;1266;99062;-76
2023/11/23 11:50:43;;;;;;;17.60;10.70;;;;;;;4.30;92.65;99139.08;129950;1268;99186;-75
2023/11/23 11:53:49;;;;;;;28.30;18.50;;;;;;;4.38;92.56;99140.00;129838;1268;99155;-75
2023/11/23 11:56:55;;;;;;;32.00;19.20;;;;;;;4.44;92.36;99139.30;129606;1268;222644;-75
2023/11/23 12:00:07;;;;;;;61.70;33.60;;;;;;;4.46;92.39;99137.49;129944;1265;99158;-77
2023/11/23 12:03:18;;;;;;;56.30;29.00;;;;;;;4.48;92.41;99123.70;129760;1264;101574;-76
2023/11/23 12:06:23;;;;;;;59.60;36.00;;;;;;;4.54;92.37;99112.77;129912;1263;99036;-75
2023/11/23 12:09:30;;;;;;;64.70;39.20;;;;;;;4.61;92.47;99102.81;129797;1268;99176;-75
2023/11/23 12:12:47;;;;;;;107.70;64.50;;;;;;;4.68;92.58;99089.23;129997;1268;97975;-75
2023/11/23 12:15:55;;;;;;;96.90;58.10;;;;;;;4.75;92.33;99084.58;129858;1264;99129;-75
2023/11/23 12:19:00;;;;;;;85.70;50.80;;;;;;;4.76;92.36;99080.63;129881;1268;98063;-76
2023/11/23 12:22:06;;;;;;;53.00;32.80;;;;;;;4.77;92.18;99080.87;129941;1268;98018;-75
2023/11/23 12:25:13;;;;;;;75.40;46.70;;;;;;;4.82;92.47;99080.63;129921;1264;98633;-75
2023/11/23 12:28:23;;;;;;;48.10;29.40;;;;;;;4.87;92.57;99075.69;129985;1264;97986;-76
2023/11/23 12:31:28;;;;;;;69.00;43.00;;;;;;;4.93;92.50;99068.28;129929;1264;97977;-76
2023/11/23 12:34:34;;;;;;;48.80;29.60;;;;;;;4.96;92.65;99073.80;129876;1268;97978;-75
2023/11/23 12:37:40;;;;;;;91.80;45.00;;;;;;;4.97;92.74;99057.38;129906;1263;98009;-75
2023/11/23 12:40:45;;;;;;;109.00;45.40;;;;;;;4.99;92.90;99053.29;129936;1264;97986;-75
2023/11/23 12:43:51;;;;;;;144.40;61.90;;;;;;;5.04;92.81;99039.18;129933;1268;99071;-75
2023/11/23 12:46:57;;;;;;;111.30;53.40;;;;;;;5.12;92.97;99049.16;129898;1268;97988;-75
2023/11/23 12:50:04;;;;;;;174.30;74.70;;;;;;;5.20;92.88;99026.92;129893;1263;99043;-78
2023/11/23 12:53:10;;;;;;;149.90;61.40;;;;;;;5.25;92.99;99031.67;129910;1268;97986;-75
2023/11/23 12:56:15;;;;;;;26.90;15.50;;;;;;;5.27;93.11;99005.61;129896;1268;99205;-75
2023/11/23 12:59:21;;;;;;;14.20;9.50;;;;;;;5.27;93.52;99004.73;129927;1268;98726;-75
2023/11/23 13:02:27;;;;;;;12.60;7.90;;;;;;;5.31;93.51;98991.82;129858;1268;98060;-75
2023/11/23 13:05:34;;;;;;;12.30;8.10;;;;;;;5.35;94.13;98984.73;129867;1268;99167;-75
2023/11/23 13:08:40;;;;;;;11.00;8.00;;;;;;;5.39;94.00;98982.70;129987;1268;98014;-75
2023/11/23 13:11:45;;;;;;;10.20;6.70;;;;;;;5.40;94.11;98976.25;129955;1262;98681;-75
2023/11/23 13:14:51;;;;;;;13.60;7.70;;;;;;;5.43;93.92;98972.11;129992;1264;98786;-75
2023/11/23 13:17:56;;;;;;;16.60;11.50;;;;;;;5.45;94.40;98980.89;129997;1267;99222;-76
2023/11/23 13:21:02;;;;;;;19.20;10.70;;;;;;;5.49;93.94;98960.21;129988;1267;98783;-75
2023/11/23 13:24:11;;;;;;;14.30;9.40;;;;;;;5.51;94.18;98957.00;130027;1262;98009;-75
2023/11/23 13:27:17;;;;;;;15.70;9.60;;;;;;;5.51;94.02;98943.05;130007;1269;99147;-75
2023/11/23 13:30:26;;;;;;;19.10;10.10;;;;;;;5.50;94.11;98928.38;130028;1268;99231;-76
2023/11/23 13:33:31;;;;;;;13.10;7.70;;;;;;;5.52;94.09;98924.07;130045;1267;98757;-76
2023/11/23 13:36:37;;;;;;;12.10;8.30;;;;;;;5.57;94.13;98909.35;129962;1267;97964;-75
2023/11/23 13:39:43;;;;;;;30.50;20.00;;;;;;;5.61;94.06;98898.52;130013;1264;98076;-76
2023/11/23 13:42:48;;;;;;;13.80;9.30;;;;;;;5.60;94.06;98901.41;129886;1265;98035;-74
2023/11/23 13:45:54;;;;;;;18.40;10.90;;;;;;;5.61;94.20;98894.86;129929;1268;99179;-75
2023/11/23 13:49:00;;;;;;;14.20;9.10;;;;;;;5.63;94.32;98879.65;129921;1268;97969;-74
2023/11/23 13:52:10;;;;;;;12.00;8.40;;;;;;;5.67;94.21;98882.20;129916;1264;97978;-75
2023/11/23 13:55:16;;;;;;;12.40;8.70;;;;;;;5.73;94.11;98887.66;129940;1268;98067;-77
2023/11/23 13:58:21;;;;;;;12.80;8.50;;;;;;;5.74;94.20;98868.81;129872;1265;97983;-77
2023/11/23 14:01:28;;;;;;;15.20;8.70;;;;;;;5.73;94.13;98855.16;129881;1263;99276;-77
2023/11/23 14:04:34;;;;;;;12.00;8.10;;;;;;;5.73;94.15;98851.61;129910;1268;99180;-77
2023/11/23 14:07:40;;;;;;;10.70;7.40;;;;;;;5.77;94.03;98844.52;129921;1267;98053;-77
2023/11/23 14:10:45;;;;;;;20.80;15.80;;;;;;;5.80;94.21;98826.96;130017;1267;98383;-75